createdAt,value
2023-05-10T00:01:27.951Z,15.65
2023-05-10T00:03:58.082Z,15.56
2023-05-10T00:06:28.158Z,15.56
2023-05-10T00:08:58.146Z,15.50
2023-05-10T00:11:28.269Z,15.38
2023-05-10T00:14:00.837Z,15.39
2023-05-10T00:16:30.913Z,15.35
2023-05-10T00:19:00.966Z,15.32
2023-05-10T00:21:31.345Z,15.17
2023-05-10T00:24:01.433Z,15.17
2023-05-10T00:26:31.444Z,15.07
2023-05-10T00:29:04.414Z,15.09
2023-05-10T00:31:34.399Z,15.03
2023-05-10T00:34:04.463Z,14.96
2023-05-10T00:36:34.377Z,14.90
2023-05-10T00:39:04.752Z,14.85
2023-05-10T00:41:34.853Z,14.84
2023-05-10T00:44:08.163Z,14.80
2023-05-10T00:46:38.506Z,14.67
2023-05-10T00:49:08.609Z,14.72
2023-05-10T00:51:38.656Z,14.72
2023-05-10T00:54:09.346Z,14.64
2023-05-10T00:56:39.522Z,14.59
2023-05-10T00:59:12.209Z,14.49
2023-05-10T01:01:42.314Z,14.45
2023-05-10T01:04:12.920Z,14.44
2023-05-10T01:06:42.965Z,14.45
2023-05-10T01:09:12.937Z,14.44
2023-05-10T01:11:43.647Z,14.44
2023-05-10T01:14:16.407Z,14.34
2023-05-10T01:16:47.070Z,14.23
2023-05-10T01:19:21.468Z,14.22
2023-05-10T01:21:55.390Z,14.26
2023-05-10T01:24:53.469Z,14.21
2023-05-10T01:27:47.699Z,14.22
2023-05-10T01:30:44.318Z,14.03
2023-05-10T01:33:20.439Z,14.04
2023-05-10T01:35:57.785Z,13.98
2023-05-10T01:38:44.356Z,13.95
2023-05-10T01:41:19.067Z,13.97
2023-05-10T01:43:55.494Z,13.95
2023-05-10T01:46:31.765Z,13.83
2023-05-10T01:49:05.237Z,13.82
2023-05-10T01:51:39.720Z,13.77
2023-05-10T01:54:10.050Z,13.78
2023-05-10T01:56:41.438Z,13.69
2023-05-10T01:59:15.675Z,13.61
2023-05-10T02:01:46.321Z,13.56
2023-05-10T02:04:21.158Z,13.54
2023-05-10T02:06:52.059Z,13.58
2023-05-10T02:09:24.459Z,13.54
2023-05-10T02:11:54.500Z,13.53
2023-05-10T02:14:25.672Z,13.52
2023-05-10T02:16:57.232Z,13.52
2023-05-10T02:19:30.450Z,13.36
2023-05-10T02:22:01.539Z,13.37
2023-05-10T02:24:32.668Z,13.33
2023-05-10T02:27:04.830Z,13.24
2023-05-10T02:29:35.783Z,13.18
2023-05-10T02:32:07.450Z,13.22
2023-05-10T02:34:40.629Z,13.21
2023-05-10T02:37:11.362Z,13.12
2023-05-10T02:39:44.909Z,13.15
2023-05-10T02:42:18.744Z,13.07
2023-05-10T02:44:52.383Z,13.10
2023-05-10T02:47:22.737Z,12.96
2023-05-10T02:49:55.305Z,13.01
2023-05-10T02:52:29.285Z,13.02
2023-05-10T02:55:00.329Z,13.03
2023-05-10T02:57:32.929Z,12.97
2023-05-10T03:00:04.239Z,13.00
2023-05-10T03:02:34.641Z,12.95
2023-05-10T03:05:07.856Z,12.91
2023-05-10T03:07:38.604Z,12.80
2023-05-10T03:10:10.194Z,12.79
2023-05-10T03:12:52.434Z,12.84
2023-05-10T03:15:33.149Z,12.73
2023-05-10T03:18:09.081Z,12.70
2023-05-10T03:20:46.830Z,12.70
2023-05-10T03:23:25.533Z,12.78
2023-05-10T03:25:56.526Z,12.75
2023-05-10T03:28:29.790Z,12.75
2023-05-10T03:31:00.457Z,12.77
2023-05-10T03:33:30.700Z,12.73
2023-05-10T03:36:03.361Z,12.75
2023-05-10T03:38:33.392Z,12.73
2023-05-10T03:41:03.324Z,12.68
2023-05-10T03:43:33.440Z,12.56
2023-05-10T03:46:05.673Z,12.58
2023-05-10T03:48:36.302Z,12.61
2023-05-10T03:51:09.123Z,12.69
2023-05-10T03:53:39.499Z,12.63
2023-05-10T03:56:09.817Z,12.67
2023-05-10T03:58:39.999Z,12.71
2023-05-10T04:01:10.117Z,12.72
2023-05-10T04:03:40.323Z,12.71
2023-05-10T04:06:13.333Z,12.68
2023-05-10T04:08:43.340Z,12.75
2023-05-10T04:11:15.291Z,12.71
2023-05-10T04:13:45.242Z,12.69
2023-05-10T04:16:15.180Z,12.71
2023-05-10T04:18:45.166Z,12.74
2023-05-10T04:21:20.749Z,12.69
2023-05-10T04:23:50.770Z,12.68
2023-05-10T04:26:21.340Z,12.73
2023-05-10T04:28:51.383Z,12.77
2023-05-10T04:31:21.429Z,12.67
2023-05-10T04:33:51.607Z,12.62
2023-05-10T04:36:24.303Z,12.74
2023-05-10T04:38:54.015Z,12.80
2023-05-10T04:41:24.014Z,12.73
2023-05-10T04:43:53.887Z,12.86
2023-05-10T04:46:24.230Z,12.95
2023-05-10T04:48:54.084Z,13.03
2023-05-10T04:51:26.345Z,13.11
2023-05-10T04:54:05.363Z,13.21
2023-05-10T04:56:37.098Z,13.31
2023-05-10T04:59:06.963Z,13.36
2023-05-10T05:01:37.036Z,13.36
2023-05-10T05:04:07.985Z,13.44
2023-05-10T05:06:44.733Z,13.49
2023-05-10T05:09:14.568Z,13.53
2023-05-10T05:11:44.470Z,13.57
2023-05-10T05:14:14.234Z,13.60
2023-05-10T05:16:44.083Z,13.71
2023-05-10T05:19:13.846Z,13.72
2023-05-10T05:21:46.200Z,13.70
2023-05-10T05:24:16.153Z,13.75
2023-05-10T05:26:45.964Z,13.73
2023-05-10T05:29:16.913Z,13.79
2023-05-10T05:31:48.485Z,13.83
2023-05-10T05:34:18.247Z,13.85
2023-05-10T05:36:50.505Z,14.00
2023-05-10T05:39:20.492Z,13.98
2023-05-10T05:41:50.236Z,13.99
2023-05-10T05:44:19.878Z,13.90
2023-05-10T05:46:49.596Z,13.83
2023-05-10T05:49:19.272Z,13.83
2023-05-10T05:51:51.760Z,13.86
2023-05-10T05:54:21.524Z,13.86
2023-05-10T05:56:51.173Z,13.84
2023-05-10T05:59:20.866Z,13.91
2023-05-10T06:01:50.581Z,13.88
2023-05-10T06:04:20.720Z,13.84
2023-05-10T06:06:53.103Z,13.86
2023-05-10T06:09:24.865Z,13.91
2023-05-10T06:11:54.616Z,13.99
2023-05-10T06:14:24.381Z,13.89
2023-05-10T06:16:54.079Z,13.89
2023-05-10T06:19:23.811Z,13.92
2023-05-10T06:21:56.216Z,13.90
2023-05-10T06:24:27.570Z,13.83
2023-05-10T06:26:57.541Z,13.84
2023-05-10T06:29:27.374Z,13.81
2023-05-10T06:31:57.192Z,13.86
2023-05-10T06:34:27.127Z,13.87
2023-05-10T06:36:59.494Z,13.83
2023-05-10T06:39:30.489Z,13.81
2023-05-10T06:42:00.374Z,13.73
2023-05-10T06:44:35.643Z,13.79
2023-05-10T06:47:05.630Z,13.84
2023-05-10T06:49:35.442Z,13.89
2023-05-10T06:52:07.952Z,13.88
2023-05-10T06:54:37.724Z,13.92
2023-05-10T06:57:16.145Z,13.90
2023-05-10T06:59:49.778Z,13.94
2023-05-10T07:02:19.680Z,13.94
2023-05-10T07:04:51.324Z,13.96
2023-05-10T07:07:23.851Z,13.97
2023-05-10T07:09:53.682Z,13.90
2023-05-10T07:12:23.465Z,13.83
2023-05-10T07:14:53.355Z,13.85
2023-05-10T07:17:23.292Z,13.84
2023-05-10T07:19:53.326Z,13.89
2023-05-10T07:22:25.890Z,13.88
2023-05-10T07:24:55.560Z,13.80
2023-05-10T07:27:25.304Z,13.76
2023-05-10T07:29:55.757Z,13.65
2023-05-10T07:32:25.559Z,13.59
2023-05-10T07:34:55.641Z,13.46
2023-05-10T07:37:27.959Z,13.38
2023-05-10T07:39:57.753Z,13.37
2023-05-10T07:42:27.437Z,13.37
2023-05-10T07:44:57.129Z,13.37
2023-05-10T07:47:27.294Z,13.27
2023-05-10T07:49:57.155Z,13.32
2023-05-10T07:52:29.515Z,13.27
2023-05-10T07:54:59.391Z,13.29
2023-05-10T07:57:29.131Z,13.25
2023-05-10T07:59:58.837Z,13.18
2023-05-10T08:02:28.584Z,13.18
2023-05-10T08:04:58.224Z,13.18
2023-05-10T08:07:31.020Z,13.19
2023-05-10T08:10:00.682Z,13.10
2023-05-10T08:12:30.297Z,13.08
2023-05-10T08:15:00.026Z,13.05
2023-05-10T08:17:29.801Z,13.01
2023-05-10T08:19:59.490Z,12.95
2023-05-10T08:22:31.801Z,12.97
2023-05-10T08:25:01.484Z,13.03
2023-05-10T08:27:31.240Z,13.03
2023-05-10T08:30:01.772Z,13.04
2023-05-10T08:32:32.205Z,12.97
2023-05-10T08:35:01.928Z,12.98
2023-05-10T08:37:36.659Z,12.97
2023-05-10T08:40:07.212Z,12.99
2023-05-10T08:42:40.274Z,13.08
2023-05-10T08:45:11.894Z,12.98
2023-05-10T08:47:42.029Z,12.93
2023-05-10T08:50:13.229Z,12.92
2023-05-10T08:52:45.928Z,12.89
2023-05-10T08:55:16.242Z,12.85
2023-05-10T08:57:46.436Z,12.73
2023-05-10T09:00:17.946Z,12.65
2023-05-10T09:02:48.152Z,12.55
2023-05-10T09:05:19.335Z,12.59
2023-05-10T09:07:52.143Z,12.64
2023-05-10T09:10:22.026Z,12.71
2023-05-10T09:12:52.513Z,12.73
2023-05-10T09:15:22.854Z,12.71
2023-05-10T09:17:53.521Z,12.68
2023-05-10T09:20:23.705Z,12.68
2023-05-10T09:22:56.155Z,12.64
2023-05-10T09:25:25.991Z,12.72
2023-05-10T09:27:56.258Z,12.69
2023-05-10T09:30:30.416Z,12.73
2023-05-10T09:33:01.098Z,12.72
2023-05-10T09:35:31.396Z,12.75
2023-05-10T09:38:05.998Z,12.74
2023-05-10T09:40:36.064Z,12.76
2023-05-10T09:43:07.423Z,12.85
2023-05-10T09:45:39.297Z,12.90
2023-05-10T09:48:09.787Z,12.93
2023-05-10T09:50:39.988Z,12.99
2023-05-10T09:53:12.369Z,12.98
2023-05-10T09:55:45.848Z,12.98
2023-05-10T09:58:16.385Z,13.00
2023-05-10T10:00:48.964Z,13.04
2023-05-10T10:03:21.462Z,13.02
2023-05-10T10:05:52.410Z,13.07
2023-05-10T10:08:24.822Z,13.05
2023-05-10T10:10:54.626Z,13.05
2023-05-10T10:13:24.397Z,12.97
2023-05-10T10:15:54.788Z,12.97
2023-05-10T10:18:28.310Z,13.01
2023-05-10T10:20:58.259Z,13.04
2023-05-10T10:23:31.405Z,13.07
2023-05-10T10:26:01.305Z,13.18
2023-05-10T10:28:48.520Z,13.29
2023-05-10T10:31:25.196Z,13.35
2023-05-10T10:34:08.233Z,13.32
2023-05-10T10:36:44.149Z,13.34
2023-05-10T10:39:17.162Z,13.46
2023-05-10T10:41:59.996Z,13.58
2023-05-10T10:45:11.390Z,13.72
2023-05-10T10:48:02.259Z,13.79
2023-05-10T10:54:49.878Z,13.79
2023-05-10T10:57:47.831Z,13.87
2023-05-10T11:01:11.319Z,13.88
2023-05-10T11:04:12.443Z,13.93
2023-05-10T11:06:52.589Z,14.00
2023-05-10T11:09:43.737Z,13.98
2023-05-10T11:23:04.971Z,14.27
2023-05-10T11:28:45.679Z,14.28
2023-05-10T11:31:18.101Z,14.40
2023-05-10T11:33:48.814Z,14.41
2023-05-10T11:36:19.793Z,14.45
2023-05-10T11:38:50.530Z,14.56
2023-05-10T11:41:24.592Z,14.60
2023-05-10T11:43:55.630Z,14.62
2023-05-10T11:46:28.088Z,14.70
2023-05-10T11:49:02.876Z,14.74
2023-05-10T11:51:33.301Z,14.83
2023-05-10T11:54:03.846Z,14.83
2023-05-10T11:56:36.965Z,14.82
2023-05-10T11:59:07.969Z,14.86
2023-05-10T12:01:38.153Z,14.86
2023-05-10T12:04:08.571Z,14.79
2023-05-10T12:06:44.584Z,14.90
2023-05-10T12:09:14.849Z,14.89
2023-05-10T12:11:47.654Z,14.96
2023-05-10T12:14:17.785Z,15.06
2023-05-10T12:16:48.144Z,15.21
2023-05-10T12:19:22.544Z,15.35
2023-05-10T12:21:53.144Z,15.37
2023-05-10T12:24:23.426Z,15.44
2023-05-10T12:26:56.108Z,15.55
2023-05-10T12:29:26.258Z,15.65
2023-05-10T12:31:57.483Z,15.76
2023-05-10T12:34:31.443Z,15.80
2023-05-10T12:37:01.999Z,15.81
2023-05-10T12:39:43.139Z,15.70
2023-05-10T12:42:15.954Z,15.72
2023-05-10T12:44:46.152Z,15.76
2023-05-10T12:47:16.281Z,15.80
2023-05-10T12:49:46.623Z,15.84
2023-05-10T12:52:16.895Z,15.89
2023-05-10T12:54:47.370Z,15.99
2023-05-10T12:57:20.690Z,16.01
2023-05-10T12:59:50.941Z,16.08
2023-05-10T13:02:22.690Z,16.05
2023-05-10T13:04:53.379Z,16.10
2023-05-10T13:07:23.191Z,16.07
2023-05-10T13:09:53.346Z,16.03
2023-05-10T13:12:26.013Z,16.05
2023-05-10T13:14:56.197Z,16.14
2023-05-10T13:17:26.459Z,16.08
2023-05-10T13:19:56.744Z,16.22
2023-05-10T13:22:39.157Z,16.27
2023-05-10T13:25:10.694Z,16.31
2023-05-10T13:27:43.557Z,16.40
2023-05-10T13:30:14.712Z,16.52
2023-05-10T13:32:45.129Z,16.50
2023-05-10T13:35:15.123Z,16.54
2023-05-10T13:37:45.521Z,16.51
2023-05-10T13:40:16.891Z,16.52
2023-05-10T13:42:49.866Z,16.61
2023-05-10T13:45:20.046Z,16.71
2023-05-10T13:47:50.258Z,16.73
2023-05-10T13:50:20.927Z,16.79
2023-05-10T13:52:51.117Z,16.74
2023-05-10T13:55:21.268Z,16.82
2023-05-10T13:57:54.298Z,16.79
2023-05-10T14:00:24.485Z,16.74
2023-05-10T14:02:54.813Z,16.72
2023-05-10T14:05:26.283Z,16.68
2023-05-10T14:07:56.911Z,16.67
2023-05-10T14:10:27.169Z,16.63
2023-05-10T14:13:00.289Z,16.38
2023-05-10T14:15:30.573Z,16.26
2023-05-10T14:18:00.771Z,16.10
2023-05-10T14:20:31.263Z,15.94
2023-05-10T14:23:01.382Z,15.96
2023-05-10T14:25:31.846Z,15.93
2023-05-10T14:28:04.638Z,15.97
2023-05-10T14:30:35.848Z,15.93
2023-05-10T14:33:06.839Z,16.04
2023-05-10T14:35:37.130Z,16.18
2023-05-10T14:38:07.295Z,16.23
2023-05-10T14:40:37.673Z,16.25
2023-05-10T14:43:10.575Z,16.27
2023-05-10T14:45:40.705Z,16.34
2023-05-10T14:48:16.387Z,16.37
2023-05-10T14:50:46.681Z,16.39
2023-05-10T14:53:16.837Z,16.48
2023-05-10T14:55:47.323Z,16.60
2023-05-10T14:58:20.379Z,16.58
2023-05-10T15:00:50.459Z,16.52
2023-05-10T15:03:20.964Z,16.52
2023-05-10T15:05:51.126Z,16.49
2023-05-10T15:08:21.220Z,16.39
2023-05-10T15:10:51.376Z,16.25
2023-05-10T15:13:24.144Z,16.14
2023-05-10T15:15:54.466Z,16.10
2023-05-10T15:18:27.846Z,16.03
2023-05-10T15:20:59.690Z,15.92
2023-05-10T15:23:31.032Z,15.89
2023-05-10T15:26:01.082Z,15.92
2023-05-10T15:28:34.514Z,15.92
2023-05-10T15:31:04.795Z,15.95
2023-05-10T15:33:35.036Z,15.98
2023-05-10T15:36:05.466Z,15.95
2023-05-10T15:38:35.503Z,15.94
2023-05-10T15:41:05.531Z,15.92
2023-05-10T16:40:32.967Z,15.10
2023-05-10T16:43:02.822Z,15.12
2023-05-10T16:45:34.254Z,15.11
2023-05-10T16:48:07.568Z,15.14
2023-05-10T16:50:51.253Z,15.20
2023-05-10T16:57:13.604Z,15.18
2023-05-10T16:59:43.652Z,15.16
2023-05-10T17:02:22.271Z,15.21
2023-05-10T17:04:53.358Z,15.26
2023-05-10T17:18:02.984Z,15.19
2023-05-10T17:20:35.694Z,15.17
2023-05-10T17:23:05.498Z,15.13
2023-05-10T17:25:38.142Z,15.08
2023-05-10T17:28:07.935Z,15.05
2023-05-10T17:30:51.345Z,15.03
2023-05-10T17:33:50.004Z,15.04
2023-05-10T17:44:30.346Z,14.98
2023-05-10T17:47:17.859Z,15.05
2023-05-10T17:55:27.260Z,14.98
2023-05-10T17:57:58.749Z,15.00
2023-05-10T18:00:28.883Z,15.00
2023-05-10T18:02:58.635Z,14.95
2023-05-10T18:05:28.538Z,14.94
2023-05-10T18:07:58.327Z,14.89
2023-05-10T18:10:33.719Z,14.87
2023-05-10T18:13:17.538Z,14.80
2023-05-10T18:22:25.926Z,14.75
2023-05-10T18:35:31.976Z,14.79
2023-05-10T18:38:26.312Z,14.74
2023-05-10T18:41:22.631Z,14.76
2023-05-10T18:43:52.653Z,14.73
2023-05-10T18:46:22.722Z,14.74
2023-05-10T18:48:52.630Z,14.71
2023-05-10T18:51:26.600Z,14.63
2023-05-10T18:53:57.561Z,14.64
2023-05-10T18:56:29.913Z,14.62
2023-05-10T18:59:01.496Z,14.66
2023-05-10T19:01:31.529Z,14.62
2023-05-10T19:04:02.446Z,14.59
2023-05-10T19:06:36.522Z,14.58
2023-05-10T19:09:08.975Z,14.55
2023-05-10T19:11:40.171Z,14.50
2023-05-10T19:14:10.688Z,14.48
2023-05-10T19:16:42.299Z,14.46
2023-05-10T19:19:17.531Z,14.41
2023-05-10T19:21:50.172Z,14.32
2023-05-10T19:24:24.105Z,14.30
2023-05-10T19:26:55.520Z,14.27
2023-05-10T19:29:27.215Z,14.23
2023-05-10T19:32:00.947Z,14.23
2023-05-10T19:34:31.528Z,14.21
2023-05-10T19:37:04.847Z,14.18
2023-05-10T19:39:34.861Z,14.15
2023-05-10T19:42:05.557Z,14.15
2023-05-10T19:44:35.240Z,14.16
2023-05-10T19:47:06.017Z,14.15
2023-05-10T19:49:36.428Z,14.10
2023-05-10T19:52:12.268Z,13.96
2023-05-10T19:54:42.987Z,13.85
2023-05-10T19:57:14.071Z,13.76
2023-05-10T19:59:44.917Z,13.72
2023-05-10T20:02:15.080Z,13.67
2023-05-10T20:04:45.467Z,13.66
2023-05-10T20:07:22.894Z,13.67
2023-05-10T20:09:52.714Z,13.64
2023-05-10T20:12:22.513Z,13.65
2023-05-10T20:14:52.404Z,13.63
2023-05-10T20:17:23.647Z,13.62
2023-05-10T20:19:54.589Z,13.56
2023-05-10T20:22:31.076Z,13.50
2023-05-10T20:25:04.888Z,13.48
2023-05-10T20:27:35.899Z,13.48
2023-05-10T20:30:09.485Z,13.44
2023-05-10T20:32:41.248Z,13.44
2023-05-10T20:35:16.143Z,13.45
2023-05-10T20:38:09.249Z,13.45
2023-05-10T20:41:07.845Z,13.39
2023-05-10T20:43:59.458Z,13.38
2023-05-10T20:46:30.858Z,13.34
2023-05-10T20:49:01.445Z,13.31
2023-05-10T20:51:33.322Z,13.30
2023-05-10T20:54:09.827Z,13.32
2023-05-10T20:56:41.279Z,13.31
2023-05-10T20:59:20.469Z,13.29
2023-05-10T21:01:53.607Z,13.29
2023-05-10T21:04:27.446Z,13.31
2023-05-10T21:06:58.849Z,13.29
2023-05-10T21:09:32.154Z,13.27
2023-05-10T21:12:03.550Z,13.29
2023-05-10T21:14:35.583Z,13.29
2023-05-10T21:17:06.101Z,13.27
2023-05-10T21:19:36.722Z,13.28
2023-05-10T21:22:12.119Z,13.25
2023-05-10T21:24:45.643Z,13.25
2023-05-10T21:27:16.675Z,13.25
2023-05-10T21:29:47.503Z,13.15
2023-05-10T21:32:17.693Z,13.11
2023-05-10T21:34:48.126Z,13.14
2023-05-10T21:37:19.360Z,13.08
2023-05-10T21:39:53.088Z,13.09
2023-05-10T21:42:23.354Z,13.05
2023-05-10T21:44:53.893Z,13.02
2023-05-10T21:47:23.709Z,12.99
2023-05-10T21:49:53.598Z,12.95
2023-05-10T21:52:23.494Z,12.93
2023-05-10T21:54:55.916Z,12.98
2023-05-10T21:57:25.786Z,12.94
2023-05-10T21:59:55.776Z,12.85
2023-05-10T22:02:25.826Z,12.82
2023-05-10T22:04:55.916Z,12.77
2023-05-10T22:07:25.783Z,12.77
2023-05-10T22:09:58.739Z,12.64
2023-05-10T22:12:28.656Z,12.53
2023-05-10T22:15:09.473Z,12.45
2023-05-10T22:17:41.044Z,12.30
2023-05-10T22:20:12.245Z,12.27
2023-05-10T22:22:42.095Z,12.24
2023-05-10T22:25:14.720Z,12.12
2023-05-10T22:27:44.633Z,12.11
2023-05-10T22:30:15.390Z,12.09
2023-05-10T22:32:45.082Z,12.11
2023-05-10T22:35:14.966Z,12.14
2023-05-10T22:37:44.828Z,12.13
2023-05-10T22:40:17.943Z,12.15
2023-05-10T22:42:47.889Z,12.12
2023-05-10T22:45:17.946Z,12.14
2023-05-10T22:47:47.906Z,12.15
2023-05-10T22:50:18.065Z,12.10
2023-05-10T22:52:48.142Z,12.07
2023-05-10T22:55:20.800Z,12.04
2023-05-10T22:57:50.756Z,12.03
2023-05-10T23:00:21.033Z,12.07
2023-05-10T23:02:51.007Z,12.13
2023-05-10T23:05:21.449Z,12.19
2023-05-10T23:07:53.455Z,12.17
2023-05-10T23:10:26.100Z,12.19
2023-05-10T23:12:56.180Z,12.22
2023-05-10T23:15:26.015Z,12.27
2023-05-10T23:17:56.095Z,12.30
2023-05-10T23:20:25.979Z,12.29
2023-05-10T23:22:56.409Z,12.30
2023-05-10T23:25:28.862Z,12.33
2023-05-10T23:27:58.691Z,12.31
2023-05-10T23:30:28.503Z,12.38
2023-05-10T23:32:58.401Z,12.37
2023-05-10T23:35:28.321Z,12.34
2023-05-10T23:37:58.360Z,12.38
2023-05-10T23:40:30.914Z,12.40
2023-05-10T23:43:00.771Z,12.43
2023-05-10T23:45:30.790Z,12.45
2023-05-10T23:48:00.712Z,12.41
2023-05-10T23:50:30.695Z,12.43
2023-05-10T23:53:00.604Z,12.44
2023-05-10T23:55:33.051Z,12.43
2023-05-10T23:58:02.922Z,12.46
